DAL2A KATL-KMCO
Flight info
| Callsign | DAL2A |
|---|---|
| Flight time | 1h 4m |
| Altitude | 33000 |
| Route | SMLTZ3 WALET ZJAYX GRNCH5 |
| Aircraft | B739/M-SDE2E3FGHIRWXY/LB1 |
Departure
| Time | 2026-05-04 02:35 |
|---|---|
| Airport | Hartsfield Jackson Atlanta International Airport (KATL) |
Arrival
| Time | 2026-05-04 03:39 |
|---|---|
| Airport | Orlando International Airport (KMCO) |
| Time | Latitude | Longitude | Altitude | Speed | Heading |
|---|---|---|---|---|---|
| 2026-05-04 02:03 | 33.63799 | -84.43975 | 996 ft | 0 kts | 90° |
| 2026-05-04 02:06 | 33.63799 | -84.43976 | 996 ft | 0 kts | 90° |
| 2026-05-04 02:17 | 33.63799 | -84.43984 | 1005 ft | 2 kts | 91° |
| 2026-05-04 02:18 | 33.63800 | -84.44003 | 1005 ft | 2 kts | 97° |
| 2026-05-04 02:18 | 33.63803 | -84.44023 | 1005 ft | 2 kts | 110° |
| 2026-05-04 02:18 | 33.63811 | -84.44040 | 1005 ft | 2 kts | 139° |
| 2026-05-04 02:18 | 33.63826 | -84.44049 | 1005 ft | 2 kts | 173° |
| 2026-05-04 02:19 | 33.63834 | -84.44050 | 1005 ft | 0 kts | 179° |
| 2026-05-04 02:19 | 33.63835 | -84.44050 | 1005 ft | 0 kts | 179° |
| 2026-05-04 02:25 | 33.63828 | -84.44050 | 1005 ft | 3 kts | 179° |
| 2026-05-04 02:25 | 33.63795 | -84.44049 | 1005 ft | 6 kts | 179° |
| 2026-05-04 02:26 | 33.63756 | -84.44049 | 1005 ft | 6 kts | 179° |
| 2026-05-04 02:26 | 33.63718 | -84.44048 | 1005 ft | 5 kts | 176° |
| 2026-05-04 02:26 | 33.63682 | -84.44032 | 1005 ft | 6 kts | 142° |
| 2026-05-04 02:26 | 33.63665 | -84.43974 | 1005 ft | 10 kts | 95° |
| 2026-05-04 02:27 | 33.63664 | -84.43873 | 1005 ft | 14 kts | 90° |
| 2026-05-04 02:27 | 33.63664 | -84.43755 | 1005 ft | 14 kts | 90° |
| 2026-05-04 02:27 | 33.63663 | -84.43641 | 1005 ft | 13 kts | 90° |
| 2026-05-04 02:27 | 33.63663 | -84.43532 | 1005 ft | 13 kts | 90° |
| 2026-05-04 02:28 | 33.63664 | -84.43427 | 1005 ft | 13 kts | 90° |
| 2026-05-04 02:28 | 33.63664 | -84.43323 | 1005 ft | 12 kts | 90° |
| 2026-05-04 02:28 | 33.63664 | -84.43222 | 1005 ft | 12 kts | 90° |
| 2026-05-04 02:28 | 33.63665 | -84.43125 | 1005 ft | 12 kts | 89° |
| 2026-05-04 02:29 | 33.63664 | -84.43029 | 1005 ft | 11 kts | 91° |
| 2026-05-04 02:29 | 33.63662 | -84.42936 | 1005 ft | 11 kts | 91° |
| 2026-05-04 02:29 | 33.63661 | -84.42839 | 1005 ft | 13 kts | 91° |
| 2026-05-04 02:29 | 33.63659 | -84.42712 | 1005 ft | 17 kts | 91° |
| 2026-05-04 02:30 | 33.63656 | -84.42555 | 1006 ft | 21 kts | 92° |
| 2026-05-04 02:30 | 33.63655 | -84.42370 | 1006 ft | 24 kts | 90° |
| 2026-05-04 02:30 | 33.63655 | -84.42173 | 1006 ft | 23 kts | 90° |
| 2026-05-04 02:30 | 33.63654 | -84.41981 | 1005 ft | 22 kts | 91° |
| 2026-05-04 02:31 | 33.63654 | -84.41797 | 1005 ft | 22 kts | 89° |
| 2026-05-04 02:31 | 33.63656 | -84.41618 | 1005 ft | 21 kts | 90° |
| 2026-05-04 02:31 | 33.63655 | -84.41445 | 1005 ft | 20 kts | 91° |
| 2026-05-04 02:31 | 33.63654 | -84.41318 | 1005 ft | 13 kts | 90° |
| 2026-05-04 02:32 | 33.63653 | -84.41209 | 1005 ft | 13 kts | 90° |
| 2026-05-04 02:32 | 33.63653 | -84.41104 | 1005 ft | 13 kts | 94° |
| 2026-05-04 02:32 | 33.63615 | -84.41049 | 1005 ft | 3 kts | 152° |
| 2026-05-04 02:32 | 33.63597 | -84.41038 | 1005 ft | 3 kts | 163° |
| 2026-05-04 02:33 | 33.63575 | -84.41037 | 1005 ft | 3 kts | 176° |
| 2026-05-04 02:33 | 33.63554 | -84.41036 | 1005 ft | 3 kts | 182° |
| 2026-05-04 02:33 | 33.63534 | -84.41038 | 1005 ft | 3 kts | 182° |
| 2026-05-04 02:33 | 33.63514 | -84.41040 | 1005 ft | 3 kts | 187° |
| 2026-05-04 02:34 | 33.63492 | -84.41049 | 1005 ft | 5 kts | 210° |
| 2026-05-04 02:34 | 33.63471 | -84.41120 | 1004 ft | 14 kts | 269° |
| 2026-05-04 02:34 | 33.63471 | -84.41349 | 1005 ft | 57 kts | 270° |
| 2026-05-04 02:34 | 33.63471 | -84.42113 | 1005 ft | 123 kts | 270° |
| 2026-05-04 02:35 | 33.63473 | -84.43363 | 1037 ft | 170 kts | 273° |
| 2026-05-04 02:35 | 33.63610 | -84.44806 | 1572 ft | 179 kts | 285° |
| 2026-05-04 02:35 | 33.63984 | -84.46372 | 1915 ft | 205 kts | 284° |
| 2026-05-04 02:35 | 33.64234 | -84.48110 | 2512 ft | 222 kts | 270° |
| 2026-05-04 02:36 | 33.64013 | -84.49908 | 3204 ft | 213 kts | 260° |
| 2026-05-04 02:36 | 33.63795 | -84.51637 | 3835 ft | 205 kts | 263° |
| 2026-05-04 02:36 | 33.63642 | -84.53392 | 4084 ft | 221 kts | 265° |
| 2026-05-04 02:36 | 33.63541 | -84.55308 | 4246 ft | 239 kts | 267° |
| 2026-05-04 02:37 | 33.63489 | -84.57383 | 4441 ft | 258 kts | 269° |
| 2026-05-04 02:37 | 33.63467 | -84.59570 | 4984 ft | 264 kts | 269° |
| 2026-05-04 02:37 | 33.63459 | -84.61807 | 5674 ft | 266 kts | 270° |
| 2026-05-04 02:37 | 33.63394 | -84.64005 | 6286 ft | 270 kts | 259° |
| 2026-05-04 02:38 | 33.62585 | -84.66063 | 6845 ft | 276 kts | 229° |
| 2026-05-04 02:38 | 33.61632 | -84.67079 | 7230 ft | 279 kts | 214° |
| 2026-05-04 02:38 | 33.59956 | -84.68275 | 7821 ft | 282 kts | 211° |
| 2026-05-04 02:38 | 33.58191 | -84.69348 | 8380 ft | 289 kts | 198° |
| 2026-05-04 02:39 | 33.56184 | -84.69536 | 8932 ft | 294 kts | 174° |
| 2026-05-04 02:39 | 33.54149 | -84.69168 | 9524 ft | 298 kts | 171° |
| 2026-05-04 02:39 | 33.52091 | -84.68744 | 10084 ft | 302 kts | 171° |
| 2026-05-04 02:39 | 33.50009 | -84.68321 | 10629 ft | 305 kts | 171° |
| 2026-05-04 02:40 | 33.47908 | -84.67911 | 11193 ft | 307 kts | 172° |
| 2026-05-04 02:40 | 33.45784 | -84.67507 | 11681 ft | 313 kts | 172° |
| 2026-05-04 02:40 | 33.43566 | -84.67082 | 11805 ft | 332 kts | 169° |
| 2026-05-04 02:40 | 33.41397 | -84.66023 | 12106 ft | 344 kts | 144° |
| 2026-05-04 02:41 | 33.39601 | -84.64127 | 12663 ft | 346 kts | 136° |
| 2026-05-04 02:41 | 33.37884 | -84.62091 | 13239 ft | 349 kts | 135° |
| 2026-05-04 02:41 | 33.36163 | -84.60013 | 13762 ft | 353 kts | 135° |
| 2026-05-04 02:41 | 33.34427 | -84.57919 | 14272 ft | 356 kts | 135° |
| 2026-05-04 02:42 | 33.32647 | -84.55785 | 14780 ft | 359 kts | 135° |
| 2026-05-04 02:42 | 33.30895 | -84.53697 | 15273 ft | 362 kts | 135° |
| 2026-05-04 02:42 | 33.29079 | -84.51545 | 15771 ft | 364 kts | 136° |
| 2026-05-04 02:42 | 33.27292 | -84.49434 | 16253 ft | 367 kts | 136° |
| 2026-05-04 02:43 | 33.25444 | -84.47254 | 16741 ft | 370 kts | 136° |
| 2026-05-04 02:43 | 33.23604 | -84.45088 | 17215 ft | 373 kts | 136° |
| 2026-05-04 02:43 | 33.21751 | -84.42909 | 17699 ft | 376 kts | 136° |
| 2026-05-04 02:43 | 33.19880 | -84.40710 | 18176 ft | 379 kts | 136° |
| 2026-05-04 02:44 | 33.17995 | -84.38497 | 18615 ft | 381 kts | 136° |
| 2026-05-04 02:44 | 33.16098 | -84.36270 | 19046 ft | 384 kts | 136° |
| 2026-05-04 02:44 | 33.14188 | -84.34029 | 19464 ft | 386 kts | 136° |
| 2026-05-04 02:44 | 33.12267 | -84.31777 | 19876 ft | 389 kts | 136° |
| 2026-05-04 02:45 | 33.10331 | -84.29508 | 20282 ft | 391 kts | 136° |
| 2026-05-04 02:45 | 33.08385 | -84.27229 | 20691 ft | 394 kts | 136° |
| 2026-05-04 02:45 | 33.06422 | -84.24932 | 21100 ft | 396 kts | 136° |
| 2026-05-04 02:45 | 33.04449 | -84.22623 | 21543 ft | 399 kts | 136° |
| 2026-05-04 02:46 | 33.02436 | -84.20271 | 21949 ft | 401 kts | 137° |
| 2026-05-04 02:46 | 33.00440 | -84.18004 | 22355 ft | 402 kts | 142° |
| 2026-05-04 02:46 | 32.97991 | -84.16346 | 22701 ft | 401 kts | 162° |
| 2026-05-04 02:46 | 32.95350 | -84.15270 | 23127 ft | 402 kts | 163° |
| 2026-05-04 02:47 | 32.92691 | -84.14212 | 23490 ft | 405 kts | 163° |
| 2026-05-04 02:47 | 32.90006 | -84.13142 | 23830 ft | 408 kts | 163° |
| 2026-05-04 02:47 | 32.87310 | -84.12058 | 24147 ft | 410 kts | 163° |
| 2026-05-04 02:47 | 32.84602 | -84.10958 | 24476 ft | 412 kts | 163° |
| 2026-05-04 02:48 | 32.81881 | -84.09845 | 24784 ft | 414 kts | 163° |
| 2026-05-04 02:48 | 32.79152 | -84.08725 | 25079 ft | 417 kts | 163° |
| 2026-05-04 02:48 | 32.76401 | -84.07594 | 25381 ft | 419 kts | 162° |
| 2026-05-04 02:48 | 32.73643 | -84.06460 | 25680 ft | 421 kts | 162° |
| 2026-05-04 02:49 | 32.70868 | -84.05320 | 25975 ft | 423 kts | 162° |
| 2026-05-04 02:49 | 32.68077 | -84.04174 | 26292 ft | 424 kts | 162° |
| 2026-05-04 02:49 | 32.65292 | -84.03030 | 26712 ft | 423 kts | 162° |
| 2026-05-04 02:49 | 32.62515 | -84.01891 | 27150 ft | 421 kts | 162° |
| 2026-05-04 02:50 | 32.59751 | -84.00758 | 27556 ft | 420 kts | 162° |
| 2026-05-04 02:50 | 32.56985 | -83.99625 | 27904 ft | 421 kts | 162° |
| 2026-05-04 02:50 | 32.54214 | -83.98492 | 28242 ft | 421 kts | 162° |
| 2026-05-04 02:50 | 32.51448 | -83.97361 | 28616 ft | 420 kts | 162° |
| 2026-05-04 02:51 | 32.48683 | -83.96231 | 28978 ft | 420 kts | 162° |
| 2026-05-04 02:51 | 32.45921 | -83.95103 | 29296 ft | 420 kts | 162° |
| 2026-05-04 02:51 | 32.43151 | -83.93972 | 29603 ft | 421 kts | 162° |
| 2026-05-04 02:51 | 32.40386 | -83.92844 | 29934 ft | 420 kts | 162° |
| 2026-05-04 02:52 | 32.37627 | -83.91715 | 30247 ft | 420 kts | 161° |
| 2026-05-04 02:52 | 32.35043 | -83.90107 | 30431 ft | 424 kts | 142° |
| 2026-05-04 02:52 | 32.32772 | -83.87908 | 30823 ft | 418 kts | 144° |
| 2026-05-04 02:52 | 32.30488 | -83.85826 | 31248 ft | 412 kts | 146° |
| 2026-05-04 02:53 | 32.28166 | -83.83764 | 31477 ft | 412 kts | 146° |
| 2026-05-04 02:53 | 32.25860 | -83.81736 | 31607 ft | 415 kts | 146° |
| 2026-05-04 02:53 | 32.23540 | -83.79699 | 31795 ft | 415 kts | 146° |
| 2026-05-04 02:53 | 32.21230 | -83.77667 | 32052 ft | 413 kts | 146° |
| 2026-05-04 02:54 | 32.18933 | -83.75641 | 32264 ft | 412 kts | 147° |
| 2026-05-04 02:54 | 32.16643 | -83.73615 | 32520 ft | 410 kts | 148° |
| 2026-05-04 02:54 | 32.12017 | -83.69539 | 32588 ft | 419 kts | 148° |
| 2026-05-04 02:55 | 32.04916 | -83.63284 | 32711 ft | 431 kts | 148° |
| 2026-05-04 02:56 | 32.00072 | -83.59021 | 32789 ft | 439 kts | 148° |
| 2026-05-04 02:56 | 31.95151 | -83.54694 | 32996 ft | 443 kts | 148° |
| 2026-05-04 02:56 | 31.92680 | -83.52520 | 33117 ft | 443 kts | 149° |
| 2026-05-04 02:57 | 31.90209 | -83.50349 | 33081 ft | 443 kts | 149° |
| 2026-05-04 02:57 | 31.85262 | -83.46013 | 33111 ft | 446 kts | 149° |
| 2026-05-04 02:58 | 31.80268 | -83.41644 | 33153 ft | 450 kts | 149° |
| 2026-05-04 02:58 | 31.75224 | -83.37234 | 33161 ft | 454 kts | 149° |
| 2026-05-04 02:59 | 31.70139 | -83.32792 | 33165 ft | 458 kts | 149° |
| 2026-05-04 02:59 | 31.64999 | -83.28309 | 33163 ft | 462 kts | 149° |
| 2026-05-04 03:00 | 31.59470 | -83.24540 | 33155 ft | 454 kts | 160° |
| 2026-05-04 03:00 | 31.53707 | -83.21416 | 33130 ft | 458 kts | 162° |
| 2026-05-04 03:01 | 31.47908 | -83.18263 | 33145 ft | 462 kts | 161° |
| 2026-05-04 03:01 | 31.42080 | -83.15033 | 33122 ft | 465 kts | 161° |
| 2026-05-04 03:02 | 31.36231 | -83.11769 | 33135 ft | 467 kts | 161° |
| 2026-05-04 03:02 | 31.30355 | -83.08493 | 33133 ft | 468 kts | 162° |
| 2026-05-04 03:03 | 31.24460 | -83.05213 | 33128 ft | 470 kts | 162° |
| 2026-05-04 03:03 | 31.18551 | -83.01930 | 33138 ft | 471 kts | 162° |
| 2026-05-04 03:04 | 31.12623 | -82.98643 | 33146 ft | 472 kts | 162° |
| 2026-05-04 03:04 | 31.06692 | -82.95358 | 33153 ft | 472 kts | 162° |
| 2026-05-04 03:05 | 31.00756 | -82.92073 | 33153 ft | 472 kts | 162° |
| 2026-05-04 03:05 | 30.94817 | -82.88793 | 33154 ft | 472 kts | 162° |
| 2026-05-04 03:06 | 30.88902 | -82.85409 | 33165 ft | 479 kts | 156° |
| 2026-05-04 03:06 | 30.83475 | -82.80722 | 33180 ft | 489 kts | 149° |
| 2026-05-04 03:07 | 30.78161 | -82.75797 | 33189 ft | 488 kts | 150° |
| 2026-05-04 03:07 | 30.72784 | -82.70877 | 33195 ft | 488 kts | 150° |
| 2026-05-04 03:08 | 30.67422 | -82.66035 | 33201 ft | 489 kts | 151° |
| 2026-05-04 03:08 | 30.62044 | -82.61203 | 33222 ft | 489 kts | 151° |
| 2026-05-04 03:09 | 30.56662 | -82.56372 | 33208 ft | 489 kts | 151° |
| 2026-05-04 03:09 | 30.51277 | -82.51542 | 33231 ft | 489 kts | 151° |
| 2026-05-04 03:10 | 30.45887 | -82.46714 | 33232 ft | 489 kts | 151° |
| 2026-05-04 03:10 | 30.41410 | -82.42709 | 33239 ft | 489 kts | 151° |
| 2026-05-04 03:11 | 30.36022 | -82.37894 | 33216 ft | 489 kts | 151° |
| 2026-05-04 03:11 | 30.30641 | -82.33092 | 33225 ft | 488 kts | 151° |
| 2026-05-04 03:12 | 30.25234 | -82.28274 | 33218 ft | 487 kts | 151° |
| 2026-05-04 03:12 | 30.19592 | -82.24217 | 33228 ft | 467 kts | 166° |
| 2026-05-04 03:12 | 30.16570 | -82.22972 | 33140 ft | 456 kts | 174° |
| 2026-05-04 03:13 | 30.13524 | -82.22270 | 33209 ft | 440 kts | 180° |
| 2026-05-04 03:13 | 30.07498 | -82.21163 | 33202 ft | 436 kts | 180° |
| 2026-05-04 03:14 | 30.01524 | -82.20012 | 33192 ft | 434 kts | 180° |
| 2026-05-04 03:14 | 29.95584 | -82.18838 | 33169 ft | 432 kts | 180° |
| 2026-05-04 03:15 | 29.89663 | -82.17666 | 33172 ft | 432 kts | 180° |
| 2026-05-04 03:15 | 29.83729 | -82.16485 | 33051 ft | 436 kts | 180° |
| 2026-05-04 03:15 | 29.80689 | -82.15887 | 32296 ft | 448 kts | 179° |
| 2026-05-04 03:16 | 29.77627 | -82.15277 | 31731 ft | 444 kts | 179° |
| 2026-05-04 03:16 | 29.74598 | -82.14666 | 31199 ft | 440 kts | 179° |
| 2026-05-04 03:16 | 29.71593 | -82.14062 | 30655 ft | 436 kts | 179° |
| 2026-05-04 03:16 | 29.68615 | -82.13466 | 30094 ft | 433 kts | 179° |
| 2026-05-04 03:17 | 29.65663 | -82.12878 | 29471 ft | 429 kts | 179° |
| 2026-05-04 03:17 | 29.62736 | -82.12296 | 28925 ft | 424 kts | 179° |
| 2026-05-04 03:17 | 29.59848 | -82.11723 | 28367 ft | 420 kts | 179° |
| 2026-05-04 03:17 | 29.56985 | -82.11155 | 27817 ft | 415 kts | 179° |
| 2026-05-04 03:18 | 29.54152 | -82.10595 | 27289 ft | 411 kts | 179° |
| 2026-05-04 03:18 | 29.51345 | -82.10040 | 26738 ft | 408 kts | 179° |
| 2026-05-04 03:18 | 29.48520 | -82.09480 | 26215 ft | 405 kts | 179° |
| 2026-05-04 03:18 | 29.45756 | -82.08934 | 25710 ft | 401 kts | 179° |
| 2026-05-04 03:19 | 29.43015 | -82.08391 | 25255 ft | 398 kts | 179° |
| 2026-05-04 03:19 | 29.40301 | -82.07855 | 24784 ft | 395 kts | 179° |
| 2026-05-04 03:19 | 29.37604 | -82.07324 | 24291 ft | 393 kts | 179° |
| 2026-05-04 03:19 | 29.34908 | -82.06794 | 23715 ft | 393 kts | 179° |
| 2026-05-04 03:20 | 29.32235 | -82.06265 | 23155 ft | 387 kts | 178° |
| 2026-05-04 03:20 | 29.29636 | -82.05416 | 22588 ft | 396 kts | 162° |
| 2026-05-04 03:20 | 29.27232 | -82.03878 | 22203 ft | 392 kts | 159° |
| 2026-05-04 03:20 | 29.24874 | -82.02335 | 21691 ft | 388 kts | 159° |
| 2026-05-04 03:21 | 29.22534 | -82.00828 | 21236 ft | 385 kts | 160° |
| 2026-05-04 03:21 | 29.20193 | -81.99341 | 20780 ft | 385 kts | 160° |
| 2026-05-04 03:21 | 29.17841 | -81.97861 | 20327 ft | 387 kts | 160° |
| 2026-05-04 03:21 | 29.15482 | -81.96378 | 19856 ft | 386 kts | 160° |
| 2026-05-04 03:22 | 29.13131 | -81.94901 | 19391 ft | 384 kts | 160° |
| 2026-05-04 03:22 | 29.10794 | -81.93433 | 18915 ft | 382 kts | 159° |
| 2026-05-04 03:22 | 29.08470 | -81.91974 | 18459 ft | 381 kts | 159° |
| 2026-05-04 03:22 | 29.06216 | -81.90319 | 17904 ft | 388 kts | 148° |
| 2026-05-04 03:23 | 29.04211 | -81.88225 | 17433 ft | 390 kts | 143° |
| 2026-05-04 03:23 | 29.02271 | -81.86065 | 16939 ft | 388 kts | 143° |
| 2026-05-04 03:23 | 29.00328 | -81.83937 | 16467 ft | 386 kts | 143° |
| 2026-05-04 03:23 | 28.98387 | -81.81841 | 15990 ft | 382 kts | 142° |
| 2026-05-04 03:24 | 28.96604 | -81.79607 | 15607 ft | 380 kts | 134° |
| 2026-05-04 03:24 | 28.95024 | -81.77219 | 15254 ft | 374 kts | 131° |
| 2026-05-04 03:24 | 28.93506 | -81.74832 | 14899 ft | 369 kts | 131° |
| 2026-05-04 03:24 | 28.91990 | -81.72488 | 14551 ft | 365 kts | 131° |
| 2026-05-04 03:25 | 28.90458 | -81.70183 | 14205 ft | 365 kts | 132° |
| 2026-05-04 03:25 | 28.88905 | -81.67880 | 13857 ft | 367 kts | 131° |
| 2026-05-04 03:25 | 28.87343 | -81.65571 | 13463 ft | 368 kts | 131° |
| 2026-05-04 03:25 | 28.85783 | -81.63265 | 13086 ft | 366 kts | 131° |
| 2026-05-04 03:26 | 28.84241 | -81.60985 | 12711 ft | 363 kts | 131° |
| 2026-05-04 03:26 | 28.82709 | -81.58719 | 12369 ft | 357 kts | 131° |
| 2026-05-04 03:26 | 28.81205 | -81.56496 | 12024 ft | 350 kts | 131° |
| 2026-05-04 03:26 | 28.79662 | -81.54392 | 11654 ft | 340 kts | 142° |
| 2026-05-04 03:27 | 28.77722 | -81.52986 | 11362 ft | 325 kts | 157° |
| 2026-05-04 03:27 | 28.75727 | -81.51822 | 11044 ft | 319 kts | 157° |
| 2026-05-04 03:27 | 28.73774 | -81.50676 | 10747 ft | 313 kts | 156° |
| 2026-05-04 03:27 | 28.71856 | -81.49542 | 10444 ft | 308 kts | 156° |
| 2026-05-04 03:28 | 28.69971 | -81.48422 | 10151 ft | 303 kts | 156° |
| 2026-05-04 03:28 | 28.68097 | -81.47303 | 9830 ft | 298 kts | 155° |
| 2026-05-04 03:28 | 28.66281 | -81.46217 | 9520 ft | 292 kts | 155° |
| 2026-05-04 03:28 | 28.64504 | -81.45153 | 9243 ft | 286 kts | 155° |
| 2026-05-04 03:29 | 28.62755 | -81.44106 | 8971 ft | 282 kts | 155° |
| 2026-05-04 03:29 | 28.61031 | -81.43084 | 8700 ft | 277 kts | 158° |
| 2026-05-04 03:29 | 28.59219 | -81.42549 | 8426 ft | 264 kts | 178° |
| 2026-05-04 03:29 | 28.57413 | -81.42395 | 8191 ft | 257 kts | 179° |
| 2026-05-04 03:30 | 28.55648 | -81.42339 | 7933 ft | 250 kts | 182° |
| 2026-05-04 03:30 | 28.53928 | -81.42353 | 7690 ft | 245 kts | 182° |
| 2026-05-04 03:30 | 28.52228 | -81.42373 | 7452 ft | 243 kts | 182° |
| 2026-05-04 03:30 | 28.50536 | -81.42389 | 7244 ft | 244 kts | 182° |
| 2026-05-04 03:31 | 28.48832 | -81.42400 | 7017 ft | 246 kts | 181° |
| 2026-05-04 03:31 | 28.47111 | -81.42407 | 6783 ft | 248 kts | 181° |
| 2026-05-04 03:31 | 28.45384 | -81.42412 | 6522 ft | 248 kts | 181° |
| 2026-05-04 03:31 | 28.43669 | -81.42415 | 6280 ft | 243 kts | 181° |
| 2026-05-04 03:32 | 28.42014 | -81.42415 | 6038 ft | 233 kts | 181° |
| 2026-05-04 03:32 | 28.40430 | -81.42416 | 5807 ft | 222 kts | 180° |
| 2026-05-04 03:32 | 28.38934 | -81.42416 | 5662 ft | 206 kts | 180° |
| 2026-05-04 03:32 | 28.37566 | -81.42416 | 5515 ft | 189 kts | 179° |
| 2026-05-04 03:33 | 28.36272 | -81.42417 | 5247 ft | 181 kts | 179° |
| 2026-05-04 03:33 | 28.35038 | -81.42417 | 5040 ft | 178 kts | 179° |
| 2026-05-04 03:33 | 28.33774 | -81.42115 | 5008 ft | 192 kts | 145° |
| 2026-05-04 03:33 | 28.32991 | -81.40961 | 4864 ft | 183 kts | 117° |
| 2026-05-04 03:34 | 28.32408 | -81.39672 | 4465 ft | 178 kts | 118° |
| 2026-05-04 03:34 | 28.31842 | -81.38452 | 4086 ft | 170 kts | 117° |
| 2026-05-04 03:34 | 28.31306 | -81.37314 | 3739 ft | 159 kts | 117° |
| 2026-05-04 03:34 | 28.30797 | -81.36243 | 3388 ft | 149 kts | 117° |
| 2026-05-04 03:35 | 28.30278 | -81.35154 | 3083 ft | 170 kts | 116° |
| 2026-05-04 03:35 | 28.29723 | -81.33994 | 3030 ft | 164 kts | 116° |
| 2026-05-04 03:35 | 28.29190 | -81.32884 | 2874 ft | 157 kts | 116° |
| 2026-05-04 03:35 | 28.28767 | -81.31780 | 2538 ft | 152 kts | 95° |
| 2026-05-04 03:36 | 28.28771 | -81.30579 | 2528 ft | 155 kts | 79° |
| 2026-05-04 03:36 | 28.29190 | -81.29497 | 2513 ft | 149 kts | 55° |
| 2026-05-04 03:36 | 28.29964 | -81.28719 | 2491 ft | 149 kts | 35° |
| 2026-05-04 03:36 | 28.30930 | -81.28317 | 2210 ft | 150 kts | 13° |
| 2026-05-04 03:37 | 28.31973 | -81.28241 | 1802 ft | 150 kts | 8° |
| 2026-05-04 03:37 | 28.33017 | -81.28204 | 1443 ft | 155 kts | 7° |
| 2026-05-04 03:37 | 28.34105 | -81.28168 | 1431 ft | 154 kts | 6° |
| 2026-05-04 03:37 | 28.35178 | -81.28163 | 1438 ft | 157 kts | 4° |
| 2026-05-04 03:38 | 28.36278 | -81.28175 | 1191 ft | 157 kts | 3° |
| 2026-05-04 03:38 | 28.37360 | -81.28188 | 962 ft | 153 kts | 3° |
| 2026-05-04 03:38 | 28.38446 | -81.28189 | 698 ft | 157 kts | 1° |
| 2026-05-04 03:38 | 28.39544 | -81.28181 | 525 ft | 162 kts | 1° |
| 2026-05-04 03:39 | 28.40684 | -81.28191 | 396 ft | 161 kts | 360° |
| 2026-05-04 03:39 | 28.41770 | -81.28234 | 148 ft | 151 kts | 359° |
| 2026-05-04 03:39 | 28.42715 | -81.28244 | 103 ft | 113 kts | 359° |
| 2026-05-04 03:39 | 28.43281 | -81.28251 | 100 ft | 34 kts | 359° |
| 2026-05-04 03:40 | 28.43493 | -81.28285 | 100 ft | 20 kts | 325° |
| 2026-05-04 03:40 | 28.43485 | -81.28370 | 101 ft | 17 kts | 176° |
| 2026-05-04 03:40 | 28.43361 | -81.28372 | 97 ft | 18 kts | 182° |
| 2026-05-04 03:40 | 28.43236 | -81.28375 | 97 ft | 18 kts | 178° |
| 2026-05-04 03:41 | 28.43114 | -81.28370 | 99 ft | 17 kts | 179° |
| 2026-05-04 03:41 | 28.42998 | -81.28369 | 99 ft | 16 kts | 179° |
| 2026-05-04 03:41 | 28.42886 | -81.28368 | 100 ft | 16 kts | 179° |
| 2026-05-04 03:41 | 28.42778 | -81.28366 | 103 ft | 15 kts | 179° |
| 2026-05-04 03:42 | 28.42675 | -81.28364 | 106 ft | 15 kts | 179° |
| 2026-05-04 03:42 | 28.42577 | -81.28366 | 107 ft | 14 kts | 186° |
| 2026-05-04 03:42 | 28.42521 | -81.28397 | 105 ft | 14 kts | 224° |
| 2026-05-04 03:42 | 28.42478 | -81.28490 | 105 ft | 13 kts | 251° |
| 2026-05-04 03:43 | 28.42449 | -81.28587 | 105 ft | 13 kts | 251° |
| 2026-05-04 03:43 | 28.42420 | -81.28682 | 104 ft | 12 kts | 251° |
| 2026-05-04 03:43 | 28.42393 | -81.28775 | 107 ft | 12 kts | 251° |
| 2026-05-04 03:43 | 28.42366 | -81.28865 | 107 ft | 12 kts | 251° |
| 2026-05-04 03:44 | 28.42339 | -81.28952 | 107 ft | 12 kts | 250° |
| 2026-05-04 03:44 | 28.42312 | -81.29036 | 106 ft | 11 kts | 251° |
| 2026-05-04 03:44 | 28.42294 | -81.29122 | 106 ft | 11 kts | 261° |
| 2026-05-04 03:44 | 28.42309 | -81.29207 | 104 ft | 13 kts | 298° |
| 2026-05-04 03:45 | 28.42360 | -81.29345 | 101 ft | 28 kts | 277° |
| 2026-05-04 03:45 | 28.42365 | -81.29603 | 99 ft | 33 kts | 268° |
| 2026-05-04 03:45 | 28.42362 | -81.29851 | 102 ft | 30 kts | 270° |
| 2026-05-04 03:45 | 28.42362 | -81.30043 | 103 ft | 20 kts | 270° |
| 2026-05-04 03:46 | 28.42402 | -81.30131 | 101 ft | 1 kts | 14° |
| 2026-05-04 03:46 | 28.42410 | -81.30126 | 102 ft | 1 kts | 31° |
| 2026-05-04 03:46 | 28.42429 | -81.30114 | 102 ft | 9 kts | 29° |
| 2026-05-04 03:46 | 28.42490 | -81.30078 | 102 ft | 10 kts | 28° |
| 2026-05-04 03:47 | 28.42516 | -81.30062 | 102 ft | 0 kts | 28° |